Jet, Oklahoma
Current Conditions -  °F | °C
As of 3:58 AM on Thursday 23 Oct 2014 (Local Time) from KEND Reporting Station
Overcast Overcast  
Wind Chill: 62°   Ceiling: 5000
Heat Index: 62°   Visibility: 10mi
Dew Point: 60°   Wind: 10mph
Humidity: 94%   Direction: 170°S
Pressure: 30.08"   Gusts: NA
Location:  36.67°N, 98.18°W
Report Text: KEND 230858Z AUTO 17009KT 10SM OVC050 16/15 A3008 RMK AO2 SLP179 P2400 67200 T01640154 55003 $
Loading
Personal Weather Stations






























Interactive Weather Map
Tropical Storm Tracking
New forecast layout! Learn more

10-Day Weather Forecast

Advertisements
Track Severe Weather on mobile